sensor_id;sensor_type;location;lat;lon;timestamp;temperature;humidity
25050;DHT22;13046;49.814;9.918;2023-08-31T00:00:34;14.00;99.90
25050;DHT22;13046;49.814;9.918;2023-08-31T00:03:01;14.00;99.90
25050;DHT22;13046;49.814;9.918;2023-08-31T00:05:27;14.00;99.90
25050;DHT22;13046;49.814;9.918;2023-08-31T00:07:57;14.00;99.90
25050;DHT22;13046;49.814;9.918;2023-08-31T00:10:23;14.00;99.90
25050;DHT22;13046;49.814;9.918;2023-08-31T00:12:49;14.00;99.90
25050;DHT22;13046;49.814;9.918;2023-08-31T00:15:15;13.90;99.90
25050;DHT22;13046;49.814;9.918;2023-08-31T00:17:41;13.90;99.90
25050;DHT22;13046;49.814;9.918;2023-08-31T00:20:07;13.80;99.90
25050;DHT22;13046;49.814;9.918;2023-08-31T00:22:37;13.80;99.90
25050;DHT22;13046;49.814;9.918;2023-08-31T00:25:04;13.70;99.90
25050;DHT22;13046;49.814;9.918;2023-08-31T00:27:31;13.70;99.90
25050;DHT22;13046;49.814;9.918;2023-08-31T00:29:56;13.60;99.90
25050;DHT22;13046;49.814;9.918;2023-08-31T00:32:23;13.60;99.90
25050;DHT22;13046;49.814;9.918;2023-08-31T00:34:50;13.50;99.90
25050;DHT22;13046;49.814;9.918;2023-08-31T00:37:16;13.50;99.90
25050;DHT22;13046;49.814;9.918;2023-08-31T00:39:42;13.40;99.90
25050;DHT22;13046;49.814;9.918;2023-08-31T00:42:08;13.40;99.90
25050;DHT22;13046;49.814;9.918;2023-08-31T00:44:34;13.50;99.90
25050;DHT22;13046;49.814;9.918;2023-08-31T00:47:00;13.50;99.90
25050;DHT22;13046;49.814;9.918;2023-08-31T00:49:28;13.50;99.90
25050;DHT22;13046;49.814;9.918;2023-08-31T00:51:53;13.50;99.90
25050;DHT22;13046;49.814;9.918;2023-08-31T00:54:20;13.50;99.90
25050;DHT22;13046;49.814;9.918;2023-08-31T00:56:53;13.30;99.90
25050;DHT22;13046;49.814;9.918;2023-08-31T00:59:19;13.30;99.90
25050;DHT22;13046;49.814;9.918;2023-08-31T01:04:46;13.40;99.90
25050;DHT22;13046;49.814;9.918;2023-08-31T01:07:31;13.40;99.90
25050;DHT22;13046;49.814;9.918;2023-08-31T01:10:55;13.30;99.90
25050;DHT22;13046;49.814;9.918;2023-08-31T01:13:18;13.40;99.90
25050;DHT22;13046;49.814;9.918;2023-08-31T01:15:46;13.40;99.90
25050;DHT22;13046;49.814;9.918;2023-08-31T01:18:16;13.50;99.90
25050;DHT22;13046;49.814;9.918;2023-08-31T01:20:55;13.40;99.90
25050;DHT22;13046;49.814;9.918;2023-08-31T01:23:29;13.40;99.90
25050;DHT22;13046;49.814;9.918;2023-08-31T01:25:56;13.40;99.90
25050;DHT22;13046;49.814;9.918;2023-08-31T01:28:23;13.40;99.90
25050;DHT22;13046;49.814;9.918;2023-08-31T01:30:48;13.50;99.90
25050;DHT22;13046;49.814;9.918;2023-08-31T01:33:14;13.50;99.90
25050;DHT22;13046;49.814;9.918;2023-08-31T01:35:46;13.40;99.90
25050;DHT22;13046;49.814;9.918;2023-08-31T01:38:16;13.40;99.90
25050;DHT22;13046;49.814;9.918;2023-08-31T01:41:00;13.40;99.90
25050;DHT22;13046;49.814;9.918;2023-08-31T01:43:29;13.30;99.90
25050;DHT22;13046;49.814;9.918;2023-08-31T01:45:57;13.40;99.90
25050;DHT22;13046;49.814;9.918;2023-08-31T01:48:24;13.30;99.90
25050;DHT22;13046;49.814;9.918;2023-08-31T01:50:49;13.40;99.90
25050;DHT22;13046;49.814;9.918;2023-08-31T01:53:15;13.40;99.90
25050;DHT22;13046;49.814;9.918;2023-08-31T01:55:41;13.50;99.90
25050;DHT22;13046;49.814;9.918;2023-08-31T01:58:07;13.40;99.90
25050;DHT22;13046;49.814;9.918;2023-08-31T02:00:32;13.50;99.90
25050;DHT22;13046;49.814;9.918;2023-08-31T02:03:04;13.40;99.90
25050;DHT22;13046;49.814;9.918;2023-08-31T02:05:29;13.30;99.90
25050;DHT22;13046;49.814;9.918;2023-08-31T02:07:55;13.40;99.90
25050;DHT22;13046;49.814;9.918;2023-08-31T02:10:22;13.40;99.90
25050;DHT22;13046;49.814;9.918;2023-08-31T02:12:47;13.30;99.90
25050;DHT22;13046;49.814;9.918;2023-08-31T02:15:13;13.30;99.90
25050;DHT22;13046;49.814;9.918;2023-08-31T02:17:39;13.20;99.90
25050;DHT22;13046;49.814;9.918;2023-08-31T02:20:05;13.20;99.90
25050;DHT22;13046;49.814;9.918;2023-08-31T02:22:34;13.10;99.90
25050;DHT22;13046;49.814;9.918;2023-08-31T02:25:05;13.10;99.90
25050;DHT22;13046;49.814;9.918;2023-08-31T02:27:31;13.00;99.90
25050;DHT22;13046;49.814;9.918;2023-08-31T02:29:57;12.90;99.90
25050;DHT22;13046;49.814;9.918;2023-08-31T02:32:23;12.90;99.90
25050;DHT22;13046;49.814;9.918;2023-08-31T02:34:49;12.80;99.90
25050;DHT22;13046;49.814;9.918;2023-08-31T02:37:15;12.80;99.90
25050;DHT22;13046;49.814;9.918;2023-08-31T02:39:41;12.70;99.90
25050;DHT22;13046;49.814;9.918;2023-08-31T02:42:08;12.70;99.90
25050;DHT22;13046;49.814;9.918;2023-08-31T02:44:33;12.70;99.90
25050;DHT22;13046;49.814;9.918;2023-08-31T02:46:59;12.70;99.90
25050;DHT22;13046;49.814;9.918;2023-08-31T02:49:26;12.70;99.90
25050;DHT22;13046;49.814;9.918;2023-08-31T02:51:51;12.70;99.90
25050;DHT22;13046;49.814;9.918;2023-08-31T02:54:17;12.70;99.90
25050;DHT22;13046;49.814;9.918;2023-08-31T02:56:42;12.60;99.90
25050;DHT22;13046;49.814;9.918;2023-08-31T02:59:08;12.60;99.90
25050;DHT22;13046;49.814;9.918;2023-08-31T03:01:34;12.60;99.90
25050;DHT22;13046;49.814;9.918;2023-08-31T03:04:00;12.60;99.90
25050;DHT22;13046;49.814;9.918;2023-08-31T03:06:26;12.60;99.90
25050;DHT22;13046;49.814;9.918;2023-08-31T03:08:51;12.60;99.90
25050;DHT22;13046;49.814;9.918;2023-08-31T03:11:18;12.50;99.90
25050;DHT22;13046;49.814;9.918;2023-08-31T03:13:43;12.50;99.90
25050;DHT22;13046;49.814;9.918;2023-08-31T03:16:10;12.50;99.90
25050;DHT22;13046;49.814;9.918;2023-08-31T03:18:36;12.50;99.90
25050;DHT22;13046;49.814;9.918;2023-08-31T03:21:02;12.40;99.90
25050;DHT22;13046;49.814;9.918;2023-08-31T03:23:29;12.50;99.90
25050;DHT22;13046;49.814;9.918;2023-08-31T03:25:56;12.40;99.90
25050;DHT22;13046;49.814;9.918;2023-08-31T03:28:25;12.40;99.90
25050;DHT22;13046;49.814;9.918;2023-08-31T03:30:56;12.40;99.90
25050;DHT22;13046;49.814;9.918;2023-08-31T03:33:21;12.40;99.90
25050;DHT22;13046;49.814;9.918;2023-08-31T03:35:48;12.40;99.90
25050;DHT22;13046;49.814;9.918;2023-08-31T03:38:13;12.30;99.90
25050;DHT22;13046;49.814;9.918;2023-08-31T03:40:40;12.30;99.90
25050;DHT22;13046;49.814;9.918;2023-08-31T03:43:06;12.30;99.90
25050;DHT22;13046;49.814;9.918;2023-08-31T03:45:32;12.30;99.90
25050;DHT22;13046;49.814;9.918;2023-08-31T03:47:57;12.40;99.90
25050;DHT22;13046;49.814;9.918;2023-08-31T03:50:25;12.40;99.90
25050;DHT22;13046;49.814;9.918;2023-08-31T03:52:50;12.40;99.90
25050;DHT22;13046;49.814;9.918;2023-08-31T03:55:17;12.40;99.90
25050;DHT22;13046;49.814;9.918;2023-08-31T03:57:43;12.40;99.90
25050;DHT22;13046;49.814;9.918;2023-08-31T04:00:16;12.50;99.90
25050;DHT22;13046;49.814;9.918;2023-08-31T04:02:44;12.50;99.90
25050;DHT22;13046;49.814;9.918;2023-08-31T04:05:12;12.40;99.90
25050;DHT22;13046;49.814;9.918;2023-08-31T04:07:42;12.40;99.90
25050;DHT22;13046;49.814;9.918;2023-08-31T04:10:08;12.40;99.90
25050;DHT22;13046;49.814;9.918;2023-08-31T04:12:34;12.40;99.90
25050;DHT22;13046;49.814;9.918;2023-08-31T04:15:00;12.40;99.90
25050;DHT22;13046;49.814;9.918;2023-08-31T04:17:25;12.40;99.90
25050;DHT22;13046;49.814;9.918;2023-08-31T04:19:51;12.40;99.90
25050;DHT22;13046;49.814;9.918;2023-08-31T04:22:17;12.40;99.90
25050;DHT22;13046;49.814;9.918;2023-08-31T04:24:43;12.40;99.90
25050;DHT22;13046;49.814;9.918;2023-08-31T04:27:09;12.30;99.90
25050;DHT22;13046;49.814;9.918;2023-08-31T04:29:34;12.30;99.90
25050;DHT22;13046;49.814;9.918;2023-08-31T04:32:00;12.30;99.90
25050;DHT22;13046;49.814;9.918;2023-08-31T04:34:26;12.30;99.90
25050;DHT22;13046;49.814;9.918;2023-08-31T04:36:52;12.20;99.90
25050;DHT22;13046;49.814;9.918;2023-08-31T04:39:18;12.20;99.90
25050;DHT22;13046;49.814;9.918;2023-08-31T04:41:44;12.20;99.90
25050;DHT22;13046;49.814;9.918;2023-08-31T04:44:10;12.20;99.90
25050;DHT22;13046;49.814;9.918;2023-08-31T04:46:37;12.20;99.90
25050;DHT22;13046;49.814;9.918;2023-08-31T04:49:03;12.20;99.90
25050;DHT22;13046;49.814;9.918;2023-08-31T04:51:33;12.20;99.90
25050;DHT22;13046;49.814;9.918;2023-08-31T04:53:59;12.20;99.90
25050;DHT22;13046;49.814;9.918;2023-08-31T04:56:28;12.30;99.90
25050;DHT22;13046;49.814;9.918;2023-08-31T04:58:54;12.30;99.90
25050;DHT22;13046;49.814;9.918;2023-08-31T05:01:19;12.30;99.90
25050;DHT22;13046;49.814;9.918;2023-08-31T05:03:45;12.30;99.90
25050;DHT22;13046;49.814;9.918;2023-08-31T05:06:10;12.30;99.90
25050;DHT22;13046;49.814;9.918;2023-08-31T05:08:36;12.30;99.90
25050;DHT22;13046;49.814;9.918;2023-08-31T05:11:02;12.40;99.90
25050;DHT22;13046;49.814;9.918;2023-08-31T05:13:27;12.50;99.90
25050;DHT22;13046;49.814;9.918;2023-08-31T05:15:53;12.50;99.90
25050;DHT22;13046;49.814;9.918;2023-08-31T05:18:19;12.60;99.90
25050;DHT22;13046;49.814;9.918;2023-08-31T05:20:45;12.60;99.90
25050;DHT22;13046;49.814;9.918;2023-08-31T05:23:11;12.70;99.90
25050;DHT22;13046;49.814;9.918;2023-08-31T05:25:42;12.70;99.90
25050;DHT22;13046;49.814;9.918;2023-08-31T05:28:08;12.70;99.90
25050;DHT22;13046;49.814;9.918;2023-08-31T05:30:33;12.80;99.90
25050;DHT22;13046;49.814;9.918;2023-08-31T05:33:00;12.90;99.90
25050;DHT22;13046;49.814;9.918;2023-08-31T05:35:26;12.90;99.90
25050;DHT22;13046;49.814;9.918;2023-08-31T05:37:52;13.00;99.90
25050;DHT22;13046;49.814;9.918;2023-08-31T05:40:18;13.00;99.90
25050;DHT22;13046;49.814;9.918;2023-08-31T05:42:44;13.00;99.90
25050;DHT22;13046;49.814;9.918;2023-08-31T05:45:10;13.10;99.90
25050;DHT22;13046;49.814;9.918;2023-08-31T05:47:35;13.10;99.90
25050;DHT22;13046;49.814;9.918;2023-08-31T05:50:01;13.20;99.90
25050;DHT22;13046;49.814;9.918;2023-08-31T05:52:28;13.20;99.90
25050;DHT22;13046;49.814;9.918;2023-08-31T05:54:54;13.10;99.90
25050;DHT22;13046;49.814;9.918;2023-08-31T05:57:20;13.00;99.90
25050;DHT22;13046;49.814;9.918;2023-08-31T05:59:48;13.00;99.90
25050;DHT22;13046;49.814;9.918;2023-08-31T06:02:14;12.90;99.90
25050;DHT22;13046;49.814;9.918;2023-08-31T06:04:40;12.90;99.90
25050;DHT22;13046;49.814;9.918;2023-08-31T06:07:05;13.00;99.90
25050;DHT22;13046;49.814;9.918;2023-08-31T06:09:31;13.00;99.90
25050;DHT22;13046;49.814;9.918;2023-08-31T06:11:57;13.10;99.90
25050;DHT22;13046;49.814;9.918;2023-08-31T06:14:22;13.10;99.90
25050;DHT22;13046;49.814;9.918;2023-08-31T06:16:48;13.20;99.90
25050;DHT22;13046;49.814;9.918;2023-08-31T06:19:13;13.30;99.90
25050;DHT22;13046;49.814;9.918;2023-08-31T06:21:42;13.40;99.90
25050;DHT22;13046;49.814;9.918;2023-08-31T06:24:08;13.50;99.90
25050;DHT22;13046;49.814;9.918;2023-08-31T06:26:39;13.50;99.90
25050;DHT22;13046;49.814;9.918;2023-08-31T06:29:04;13.60;99.90
25050;DHT22;13046;49.814;9.918;2023-08-31T06:31:30;13.60;99.90
25050;DHT22;13046;49.814;9.918;2023-08-31T06:33:56;13.60;99.90
25050;DHT22;13046;49.814;9.918;2023-08-31T06:36:23;13.70;99.90
25050;DHT22;13046;49.814;9.918;2023-08-31T06:38:49;13.70;99.90
25050;DHT22;13046;49.814;9.918;2023-08-31T06:41:15;13.80;99.90
25050;DHT22;13046;49.814;9.918;2023-08-31T06:43:41;13.80;99.90
25050;DHT22;13046;49.814;9.918;2023-08-31T06:46:07;13.90;99.90
25050;DHT22;13046;49.814;9.918;2023-08-31T06:48:32;14.00;99.90
25050;DHT22;13046;49.814;9.918;2023-08-31T06:50:58;14.10;99.90
25050;DHT22;13046;49.814;9.918;2023-08-31T06:53:24;14.10;99.90
25050;DHT22;13046;49.814;9.918;2023-08-31T06:55:50;14.20;99.90
25050;DHT22;13046;49.814;9.918;2023-08-31T06:58:15;14.30;99.90
25050;DHT22;13046;49.814;9.918;2023-08-31T07:00:41;14.40;99.90
25050;DHT22;13046;49.814;9.918;2023-08-31T07:03:06;14.30;99.90
25050;DHT22;13046;49.814;9.918;2023-08-31T07:05:41;14.50;99.90
25050;DHT22;13046;49.814;9.918;2023-08-31T07:08:07;14.60;99.90
25050;DHT22;13046;49.814;9.918;2023-08-31T07:10:34;14.70;99.90
25050;DHT22;13046;49.814;9.918;2023-08-31T07:13:02;14.80;99.90
25050;DHT22;13046;49.814;9.918;2023-08-31T07:15:29;14.80;99.90
25050;DHT22;13046;49.814;9.918;2023-08-31T07:17:55;14.90;99.90
25050;DHT22;13046;49.814;9.918;2023-08-31T07:20:20;15.00;99.90
25050;DHT22;13046;49.814;9.918;2023-08-31T07:22:46;15.20;99.90
25050;DHT22;13046;49.814;9.918;2023-08-31T07:25:12;15.30;99.90
25050;DHT22;13046;49.814;9.918;2023-08-31T07:27:38;15.50;99.90
25050;DHT22;13046;49.814;9.918;2023-08-31T07:30:04;15.60;99.90
25050;DHT22;13046;49.814;9.918;2023-08-31T07:32:31;15.80;99.90
25050;DHT22;13046;49.814;9.918;2023-08-31T07:34:57;16.10;99.90
25050;DHT22;13046;49.814;9.918;2023-08-31T07:37:23;15.90;99.90
25050;DHT22;13046;49.814;9.918;2023-08-31T07:39:48;15.90;99.90
25050;DHT22;13046;49.814;9.918;2023-08-31T07:42:14;15.90;99.90
25050;DHT22;13046;49.814;9.918;2023-08-31T07:44:40;15.90;99.90
25050;DHT22;13046;49.814;9.918;2023-08-31T07:47:07;15.80;99.90
25050;DHT22;13046;49.814;9.918;2023-08-31T07:49:33;15.80;99.90
25050;DHT22;13046;49.814;9.918;2023-08-31T07:51:59;16.00;99.90
25050;DHT22;13046;49.814;9.918;2023-08-31T07:54:24;16.10;99.90
25050;DHT22;13046;49.814;9.918;2023-08-31T07:56:51;16.30;99.90
25050;DHT22;13046;49.814;9.918;2023-08-31T07:59:17;16.30;99.90
25050;DHT22;13046;49.814;9.918;2023-08-31T08:01:43;16.40;99.90
25050;DHT22;13046;49.814;9.918;2023-08-31T08:04:11;16.60;99.90
25050;DHT22;13046;49.814;9.918;2023-08-31T08:06:37;16.80;99.90
25050;DHT22;13046;49.814;9.918;2023-08-31T08:09:03;16.70;99.90
25050;DHT22;13046;49.814;9.918;2023-08-31T08:11:32;16.70;99.90
25050;DHT22;13046;49.814;9.918;2023-08-31T08:13:59;16.70;99.90
25050;DHT22;13046;49.814;9.918;2023-08-31T08:16:25;16.90;99.90
25050;DHT22;13046;49.814;9.918;2023-08-31T08:18:50;17.20;99.90
25050;DHT22;13046;49.814;9.918;2023-08-31T08:21:16;17.50;99.90
25050;DHT22;13046;49.814;9.918;2023-08-31T08:23:42;17.80;99.90
25050;DHT22;13046;49.814;9.918;2023-08-31T08:26:07;17.90;99.90
25050;DHT22;13046;49.814;9.918;2023-08-31T08:28:33;17.50;99.90
25050;DHT22;13046;49.814;9.918;2023-08-31T08:33:29;17.70;99.90
25050;DHT22;13046;49.814;9.918;2023-08-31T08:35:58;17.90;99.90
25050;DHT22;13046;49.814;9.918;2023-08-31T08:40:51;17.80;99.90
25050;DHT22;13046;49.814;9.918;2023-08-31T08:45:48;18.00;99.90
25050;DHT22;13046;49.814;9.918;2023-08-31T08:50:41;18.20;99.90
25050;DHT22;13046;49.814;9.918;2023-08-31T08:53:07;18.50;99.90
25050;DHT22;13046;49.814;9.918;2023-08-31T08:55:33;18.40;99.90
25050;DHT22;13046;49.814;9.918;2023-08-31T08:57:59;18.40;99.90
25050;DHT22;13046;49.814;9.918;2023-08-31T09:00:29;17.80;99.90
25050;DHT22;13046;49.814;9.918;2023-08-31T09:02:55;17.60;99.90
25050;DHT22;13046;49.814;9.918;2023-08-31T09:08:26;17.50;99.90
25050;DHT22;13046;49.814;9.918;2023-08-31T09:10:55;17.30;99.90
25050;DHT22;13046;49.814;9.918;2023-08-31T09:13:27;17.20;99.90
25050;DHT22;13046;49.814;9.918;2023-08-31T09:15:54;17.10;99.90
25050;DHT22;13046;49.814;9.918;2023-08-31T09:20:51;17.30;99.90
25050;DHT22;13046;49.814;9.918;2023-08-31T09:23:17;17.90;99.90
25050;DHT22;13046;49.814;9.918;2023-08-31T09:25:48;18.30;99.90
25050;DHT22;13046;49.814;9.918;2023-08-31T09:28:15;18.50;99.90
25050;DHT22;13046;49.814;9.918;2023-08-31T09:30:42;18.60;99.90
25050;DHT22;13046;49.814;9.918;2023-08-31T09:33:15;18.70;99.90
25050;DHT22;13046;49.814;9.918;2023-08-31T09:35:51;18.90;99.90
25050;DHT22;13046;49.814;9.918;2023-08-31T09:38:18;18.90;99.90
25050;DHT22;13046;49.814;9.918;2023-08-31T09:50:31;19.30;99.90
25050;DHT22;13046;49.814;9.918;2023-08-31T09:55:31;18.90;99.90
25050;DHT22;13046;49.814;9.918;2023-08-31T09:58:01;18.40;99.90
25050;DHT22;13046;49.814;9.918;2023-08-31T10:00:31;18.50;99.90
25050;DHT22;13046;49.814;9.918;2023-08-31T10:03:01;18.60;99.90
25050;DHT22;13046;49.814;9.918;2023-08-31T10:12:50;18.40;99.90
25050;DHT22;13046;49.814;9.918;2023-08-31T10:15:18;17.90;99.90
25050;DHT22;13046;49.814;9.918;2023-08-31T10:17:44;18.50;99.90
25050;DHT22;13046;49.814;9.918;2023-08-31T10:20:16;19.10;99.90
25050;DHT22;13046;49.814;9.918;2023-08-31T10:25:09;19.80;99.90
25050;DHT22;13046;49.814;9.918;2023-08-31T10:27:43;20.00;99.90
25050;DHT22;13046;49.814;9.918;2023-08-31T10:41:18;20.90;99.90
25050;DHT22;13046;49.814;9.918;2023-08-31T10:58:38;21.20;99.90
25050;DHT22;13046;49.814;9.918;2023-08-31T11:01:03;19.90;99.90
25050;DHT22;13046;49.814;9.918;2023-08-31T11:03:32;20.30;99.90
25050;DHT22;13046;49.814;9.918;2023-08-31T11:30:33;20.50;99.90
25050;DHT22;13046;49.814;9.918;2023-08-31T11:33:06;19.20;99.90
25050;DHT22;13046;49.814;9.918;2023-08-31T11:35:37;19.30;99.90
25050;DHT22;13046;49.814;9.918;2023-08-31T11:38:03;19.60;99.90
25050;DHT22;13046;49.814;9.918;2023-08-31T11:40:29;19.70;99.90
25050;DHT22;13046;49.814;9.918;2023-08-31T11:42:57;19.80;99.90
25050;DHT22;13046;49.814;9.918;2023-08-31T11:45:23;19.80;99.90
25050;DHT22;13046;49.814;9.918;2023-08-31T11:52:42;20.00;99.90
25050;DHT22;13046;49.814;9.918;2023-08-31T12:00:18;19.90;99.90
25050;DHT22;13046;49.814;9.918;2023-08-31T12:07:40;20.20;99.90
25050;DHT22;13046;49.814;9.918;2023-08-31T12:34:44;21.50;99.90
25050;DHT22;13046;49.814;9.918;2023-08-31T20:33:33;21.00;99.90
25050;DHT22;13046;49.814;9.918;2023-08-31T20:36:04;17.50;99.90
25050;DHT22;13046;49.814;9.918;2023-08-31T20:43:25;17.50;99.90
25050;DHT22;13046;49.814;9.918;2023-08-31T20:45:51;17.50;99.90
25050;DHT22;13046;49.814;9.918;2023-08-31T20:48:17;17.40;99.90
25050;DHT22;13046;49.814;9.918;2023-08-31T20:50:42;17.50;99.90
25050;DHT22;13046;49.814;9.918;2023-08-31T20:53:08;17.50;99.90
25050;DHT22;13046;49.814;9.918;2023-08-31T20:55:33;17.40;99.90
25050;DHT22;13046;49.814;9.918;2023-08-31T20:57:59;17.40;99.90
25050;DHT22;13046;49.814;9.918;2023-08-31T21:00:25;17.40;99.90
25050;DHT22;13046;49.814;9.918;2023-08-31T21:02:50;17.40;99.90
25050;DHT22;13046;49.814;9.918;2023-08-31T21:05:16;17.30;99.90
25050;DHT22;13046;49.814;9.918;2023-08-31T21:07:42;17.30;99.90
25050;DHT22;13046;49.814;9.918;2023-08-31T21:10:08;17.20;99.90
25050;DHT22;13046;49.814;9.918;2023-08-31T21:12:34;17.30;99.90
25050;DHT22;13046;49.814;9.918;2023-08-31T21:14:59;17.30;99.90
25050;DHT22;13046;49.814;9.918;2023-08-31T21:17:25;17.20;99.90
25050;DHT22;13046;49.814;9.918;2023-08-31T21:19:50;17.20;99.90
25050;DHT22;13046;49.814;9.918;2023-08-31T21:22:16;17.20;99.90
25050;DHT22;13046;49.814;9.918;2023-08-31T21:24:42;17.30;99.90
25050;DHT22;13046;49.814;9.918;2023-08-31T21:27:08;17.30;99.90
25050;DHT22;13046;49.814;9.918;2023-08-31T21:29:33;17.20;99.90
25050;DHT22;13046;49.814;9.918;2023-08-31T21:31:59;17.20;99.90
25050;DHT22;13046;49.814;9.918;2023-08-31T21:34:26;17.20;99.90
25050;DHT22;13046;49.814;9.918;2023-08-31T21:36:52;17.20;99.90
25050;DHT22;13046;49.814;9.918;2023-08-31T21:39:17;17.30;99.90
25050;DHT22;13046;49.814;9.918;2023-08-31T21:44:09;17.20;99.90
25050;DHT22;13046;49.814;9.918;2023-08-31T21:46:34;17.00;99.90
25050;DHT22;13046;49.814;9.918;2023-08-31T21:49:00;17.10;99.90
25050;DHT22;13046;49.814;9.918;2023-08-31T21:53:52;17.00;99.90
25050;DHT22;13046;49.814;9.918;2023-08-31T21:56:17;16.90;99.90
25050;DHT22;13046;49.814;9.918;2023-08-31T21:58:45;16.90;99.90
25050;DHT22;13046;49.814;9.918;2023-08-31T22:01:12;16.80;99.90
25050;DHT22;13046;49.814;9.918;2023-08-31T22:03:37;16.80;99.90
25050;DHT22;13046;49.814;9.918;2023-08-31T22:06:07;16.70;99.90
25050;DHT22;13046;49.814;9.918;2023-08-31T22:08:34;16.60;99.90
25050;DHT22;13046;49.814;9.918;2023-08-31T22:11:04;16.60;99.90
25050;DHT22;13046;49.814;9.918;2023-08-31T22:13:31;16.60;99.90
25050;DHT22;13046;49.814;9.918;2023-08-31T22:15:57;16.60;99.90
25050;DHT22;13046;49.814;9.918;2023-08-31T22:18:24;16.50;99.90
25050;DHT22;13046;49.814;9.918;2023-08-31T22:20:49;16.40;99.90
25050;DHT22;13046;49.814;9.918;2023-08-31T22:23:15;16.40;99.90
25050;DHT22;13046;49.814;9.918;2023-08-31T22:25:41;16.20;99.90
25050;DHT22;13046;49.814;9.918;2023-08-31T22:28:06;16.10;99.90
25050;DHT22;13046;49.814;9.918;2023-08-31T22:30:32;16.10;99.90
25050;DHT22;13046;49.814;9.918;2023-08-31T22:32:58;16.10;99.90
25050;DHT22;13046;49.814;9.918;2023-08-31T22:35:23;16.00;99.90
25050;DHT22;13046;49.814;9.918;2023-08-31T22:37:49;16.00;99.90
25050;DHT22;13046;49.814;9.918;2023-08-31T22:40:15;16.00;99.90
25050;DHT22;13046;49.814;9.918;2023-08-31T22:42:41;16.10;99.90
25050;DHT22;13046;49.814;9.918;2023-08-31T22:45:10;16.10;99.90
25050;DHT22;13046;49.814;9.918;2023-08-31T22:47:36;16.10;99.90
25050;DHT22;13046;49.814;9.918;2023-08-31T22:50:03;16.10;99.90
25050;DHT22;13046;49.814;9.918;2023-08-31T22:52:31;16.20;99.90
25050;DHT22;13046;49.814;9.918;2023-08-31T22:54:57;16.30;99.90
25050;DHT22;13046;49.814;9.918;2023-08-31T22:57:23;16.10;99.90
25050;DHT22;13046;49.814;9.918;2023-08-31T22:59:50;16.10;99.90
25050;DHT22;13046;49.814;9.918;2023-08-31T23:02:16;16.10;99.90
25050;DHT22;13046;49.814;9.918;2023-08-31T23:04:42;16.00;99.90
25050;DHT22;13046;49.814;9.918;2023-08-31T23:07:09;15.90;99.90
25050;DHT22;13046;49.814;9.918;2023-08-31T23:09:34;16.00;99.90
25050;DHT22;13046;49.814;9.918;2023-08-31T23:12:01;15.90;99.90
25050;DHT22;13046;49.814;9.918;2023-08-31T23:14:27;15.90;99.90
25050;DHT22;13046;49.814;9.918;2023-08-31T23:16:54;16.00;99.90
25050;DHT22;13046;49.814;9.918;2023-08-31T23:19:20;16.00;99.90
25050;DHT22;13046;49.814;9.918;2023-08-31T23:21:46;16.00;99.90
25050;DHT22;13046;49.814;9.918;2023-08-31T23:24:12;16.00;99.90
25050;DHT22;13046;49.814;9.918;2023-08-31T23:26:38;16.00;99.90
25050;DHT22;13046;49.814;9.918;2023-08-31T23:29:04;16.00;99.90
25050;DHT22;13046;49.814;9.918;2023-08-31T23:31:32;16.00;99.90
25050;DHT22;13046;49.814;9.918;2023-08-31T23:33:58;15.90;99.90
25050;DHT22;13046;49.814;9.918;2023-08-31T23:36:24;15.90;99.90
25050;DHT22;13046;49.814;9.918;2023-08-31T23:38:51;15.80;99.90
25050;DHT22;13046;49.814;9.918;2023-08-31T23:41:17;15.80;99.90
25050;DHT22;13046;49.814;9.918;2023-08-31T23:43:43;15.90;99.90
25050;DHT22;13046;49.814;9.918;2023-08-31T23:46:09;15.80;99.90
25050;DHT22;13046;49.814;9.918;2023-08-31T23:48:34;15.80;99.90
25050;DHT22;13046;49.814;9.918;2023-08-31T23:51:00;15.80;99.90
25050;DHT22;13046;49.814;9.918;2023-08-31T23:53:26;15.80;99.90
25050;DHT22;13046;49.814;9.918;2023-08-31T23:55:52;15.80;99.90
25050;DHT22;13046;49.814;9.918;2023-08-31T23:58:19;15.80;99.90
